Time;durP1;ratioP1;P1;durP2;ratioP2;P2;SDS_P1;SDS_P2;PMS_P1;PMS_P2;Temp;Humidity;BMP_temperature;BMP_pressure;BME280_temperature;BME280_humidity;BME280_pressure;Samples;Min_cycle;Max_cycle;Signal;HPM_P1;HPM_P2
2023/07/03 00:01:44;;;;;;;7.03;3.90;;;;;;;;;;5080349;28;20549;-57
2023/07/03 00:04:11;;;;;;;9.77;5.30;;;;;;;;;;5080843;28;20537;-52
2023/07/03 00:06:38;;;;;;;6.60;3.07;;;;;;;;;;5081513;28;20506;-57
2023/07/03 00:09:09;;;;;;;8.03;4.10;;;15.90;99.90;;;;;;5083929;28;20538;-56
2023/07/03 00:11:36;;;;;;;10.00;4.70;;;;;;;;;;5083105;28;20844;-55
2023/07/03 00:14:03;;;;;;;8.37;4.27;;;16.30;99.90;;;;;;5084287;28;20478;-56
2023/07/03 00:16:30;;;;;;;7.23;4.07;;;16.20;99.90;;;;;;5085325;28;20825;-57
2023/07/03 00:18:58;;;;;;;9.87;3.80;;;16.30;99.90;;;;;;5093372;28;20458;-58
2023/07/03 00:21:25;;;;;;;8.40;3.97;;;16.30;99.90;;;;;;5083848;28;20545;-60
2023/07/03 00:23:52;;;;;;;5.37;3.33;;;;;;;;;;5083142;28;20825;-58
2023/07/03 00:26:19;;;;;;;5.80;4.10;;;16.30;99.90;;;;;;5083164;28;20467;-60
2023/07/03 00:28:46;;;;;;;14.00;4.87;;;16.30;99.90;;;;;;5083311;28;20474;-57
2023/07/03 00:31:13;;;;;;;7.70;3.67;;;;;;;;;;5083978;28;20442;-58
2023/07/03 00:33:40;;;;;;;8.90;3.93;;;;;;;;;;5076708;28;20553;-58
2023/07/03 00:36:09;;;;;;;11.93;5.07;;;16.10;99.90;;;;;;5076643;28;20525;-57
2023/07/03 00:38:36;;;;;;;7.43;4.23;;;16.00;99.90;;;;;;5076493;28;20482;-59
2023/07/03 00:41:03;;;;;;;10.67;4.07;;;;;;;;;;5076587;28;20452;-59
2023/07/03 00:43:39;;;;;;;7.00;4.20;;;15.80;99.90;;;;;;5079332;28;20446;-60
2023/07/03 00:46:07;;;;;;;9.77;4.03;;;;;;;;;;5079424;28;20513;-59
2023/07/03 00:48:35;;;;;;;10.13;4.07;;;15.80;99.90;;;;;;5079888;28;20484;-59
2023/07/03 00:51:02;;;;;;;5.93;3.70;;;15.50;99.90;;;;;;5081883;28;20938;-59
2023/07/03 00:53:30;;;;;;;8.20;4.37;;;15.90;99.90;;;;;;5084554;28;20525;-57
2023/07/03 00:55:57;;;;;;;7.13;4.40;;;15.80;99.90;;;;;;5084843;28;20478;-60
2023/07/03 00:58:26;;;;;;;7.53;3.60;;;16.00;99.90;;;;;;5077549;28;20442;-59
2023/07/03 01:01:01;;;;;;;7.97;3.67;;;15.80;99.90;;;;;;5076635;28;20442;-59
2023/07/03 01:03:35;;;;;;;8.07;3.97;;;15.70;99.90;;;;;;5076332;28;20484;-58
2023/07/03 01:06:05;;;;;;;8.17;4.60;;;15.80;99.90;;;;;;5078624;28;20472;-57
2023/07/03 01:08:34;;;;;;;6.13;3.70;;;15.80;99.90;;;;;;5085065;28;20486;-58
2023/07/03 01:11:01;;;;;;;9.00;3.80;;;15.90;99.90;;;;;;5083584;28;20446;-61
2023/07/03 01:13:30;;;;;;;8.97;3.90;;;15.80;99.90;;;;;;5081278;28;20435;-58
2023/07/03 01:15:58;;;;;;;6.03;4.03;;;;;;;;;;5081174;28;20509;-58
2023/07/03 01:18:25;;;;;;;6.87;4.47;;;;;;;;;;5083690;28;20450;-58
2023/07/03 01:20:57;;;;;;;7.33;3.80;;;15.90;99.90;;;;;;5087886;28;20537;-56
2023/07/03 01:23:28;;;;;;;6.47;3.90;;;15.40;99.90;;;;;;5091746;28;20423;-58
2023/07/03 01:25:58;;;;;;;7.80;4.13;;;15.80;99.90;;;;;;5091494;28;20446;-53
2023/07/03 01:28:27;;;;;;;8.40;3.80;;;;;;;;;;5082211;28;20581;-58
2023/07/03 01:30:55;;;;;;;13.93;4.33;;;16.00;99.90;;;;;;5083241;28;20537;-59
2023/07/03 01:33:26;;;;;;;6.43;4.83;;;15.90;99.90;;;;;;5086444;28;20455;-58
2023/07/03 01:35:54;;;;;;;13.23;5.30;;;16.00;99.90;;;;;;5080264;28;20437;-56
2023/07/03 01:38:22;;;;;;;8.80;4.40;;;15.90;99.90;;;;;;5082468;28;20449;-62
2023/07/03 01:40:50;;;;;;;9.23;5.00;;;16.00;99.90;;;;;;5081155;28;20467;-60
2023/07/03 01:43:18;;;;;;;11.30;4.67;;;16.50;99.90;;;;;;5088911;28;20459;-57
2023/07/03 01:45:48;;;;;;;7.83;3.67;;;16.00;99.90;;;;;;5091412;28;20950;-60
2023/07/03 01:48:15;;;;;;;8.27;4.53;;;;;;;;;;5091437;28;20451;-52
2023/07/03 01:50:44;;;;;;;5.97;5.07;;;16.00;99.90;;;;;;5091555;28;20894;-56
2023/07/03 01:53:18;;;;;;;7.73;3.97;;;17.40;99.90;;;;;;5079829;28;20957;-56
2023/07/03 01:55:49;;;;;;;14.53;4.97;;;15.70;99.90;;;;;;5081268;28;20621;-58
2023/07/03 01:58:26;;;;;;;15.90;5.03;;;16.20;99.90;;;;;;5090510;28;20537;-58
2023/07/03 02:00:57;;;;;;;13.60;5.60;;;16.00;99.90;;;;;;5091274;28;20426;-59
2023/07/03 02:03:31;;;;;;;11.87;3.90;;;16.20;99.90;;;;;;5078522;28;20443;-57
2023/07/03 02:06:00;;;;;;;7.00;4.57;;;16.30;99.90;;;;;;5078495;28;20418;-58
2023/07/03 02:08:28;;;;;;;8.70;3.57;;;16.30;99.90;;;;;;5078162;28;20481;-59
2023/07/03 02:10:56;;;;;;;9.67;4.87;;;16.30;99.90;;;;;;5078270;28;21013;-59
2023/07/03 02:13:24;;;;;;;7.80;5.40;;;16.20;99.90;;;;;;5077661;28;20456;-59
2023/07/03 02:15:51;;;;;;;7.70;4.47;;;16.40;99.90;;;;;;5076741;28;20945;-57
2023/07/03 02:18:20;;;;;;;8.50;4.17;;;;;;;;;;5080526;28;20478;-58
2023/07/03 02:20:49;;;;;;;7.63;5.60;;;16.30;99.90;;;;;;5082292;28;20537;-59
2023/07/03 02:23:16;;;;;;;6.87;3.97;;;16.20;99.90;;;;;;5077690;28;20870;-58
2023/07/03 02:25:43;;;;;;;6.50;5.30;;;15.70;99.90;;;;;;5074777;28;20450;-57
2023/07/03 02:28:10;;;;;;;10.70;4.80;;;16.30;99.90;;;;;;5096349;28;20424;-54
2023/07/03 02:30:38;;;;;;;7.00;4.00;;;16.30;99.90;;;;;;5098808;28;20411;-54
2023/07/03 02:33:06;;;;;;;5.57;4.50;;;16.30;99.90;;;;;;5084822;28;20459;-59
2023/07/03 02:35:33;;;;;;;7.40;4.07;;;;;;;;;;5074704;28;20509;-59
2023/07/03 02:38:00;;;;;;;6.23;4.40;;;;;;;;;;5074684;28;20538;-59
2023/07/03 02:40:27;;;;;;;6.33;5.00;;;16.30;99.90;;;;;;5075512;28;20522;-59
2023/07/03 02:42:54;;;;;;;9.40;4.53;;;16.30;99.90;;;;;;5081740;28;20546;-59
2023/07/03 02:45:23;;;;;;;6.33;3.43;;;16.50;99.90;;;;;;5081065;28;20934;-59
2023/07/03 02:47:51;;;;;;;11.20;4.10;;;16.50;99.90;;;;;;5085029;28;20476;-58
2023/07/03 02:50:19;;;;;;;8.83;4.40;;;;;;;;;;5074401;28;21082;-55
2023/07/03 02:52:47;;;;;;;7.43;3.57;;;16.60;99.90;;;;;;5092880;28;20481;-46
2023/07/03 02:55:14;;;;;;;6.77;4.33;;;16.40;99.90;;;;;;5096212;28;20446;-55
2023/07/03 02:57:42;;;;;;;8.07;4.30;;;;;;;;;;5095231;28;20495;-56
2023/07/03 03:00:11;;;;;;;14.83;4.70;;;16.60;99.90;;;;;;5076940;28;20462;-57
2023/07/03 03:02:38;;;;;;;7.83;4.53;;;16.80;99.90;;;;;;5074167;28;20519;-60
2023/07/03 03:05:07;;;;;;;10.03;5.20;;;16.40;99.90;;;;;;5074362;28;20442;-59
2023/07/03 03:07:34;;;;;;;7.33;3.87;;;;;;;;;;5074105;28;20457;-56
2023/07/03 03:10:01;;;;;;;8.90;5.47;;;16.90;99.90;;;;;;5074345;28;20488;-59
2023/07/03 03:12:28;;;;;;;8.73;4.60;;;;;;;;;;5078289;28;20568;-58
2023/07/03 03:14:55;;;;;;;9.43;5.27;;;;;;;;;;5090664;28;20913;-52
2023/07/03 03:17:22;;;;;;;8.90;4.30;;;;;;;;;;5094826;28;20453;-55
2023/07/03 03:19:49;;;;;;;11.60;5.40;;;16.50;99.90;;;;;;5095369;28;20446;-55
2023/07/03 03:22:17;;;;;;;7.37;4.27;;;16.90;99.90;;;;;;5076312;28;20965;-57
2023/07/03 03:24:44;;;;;;;8.60;4.97;;;16.40;99.90;;;;;;5076812;28;20480;-55
2023/07/03 03:27:12;;;;;;;8.67;4.03;;;;;;;;;;5081972;28;20446;-55
2023/07/03 03:29:39;;;;;;;8.10;4.53;;;16.70;99.90;;;;;;5085424;28;20576;-59
2023/07/03 03:32:07;;;;;;;8.50;4.90;;;17.00;99.90;;;;;;5093456;28;20506;-57
2023/07/03 03:34:35;;;;;;;8.03;4.03;;;;;;;;;;5078342;28;20514;-60
2023/07/03 03:37:02;;;;;;;11.50;4.57;;;16.30;99.90;;;;;;5077761;28;20470;-58
2023/07/03 03:39:31;;;;;;;7.93;4.40;;;16.30;99.90;;;;;;5082140;28;20913;-59
2023/07/03 03:41:58;;;;;;;10.10;5.90;;;;;;;;;;5093258;28;20466;-58
2023/07/03 03:44:25;;;;;;;7.57;4.50;;;;;;;;;;5092678;28;20449;-59
2023/07/03 03:46:53;;;;;;;10.13;4.80;;;16.50;99.90;;;;;;5079056;28;20476;-56
2023/07/03 03:49:20;;;;;;;7.40;4.90;;;16.40;99.90;;;;;;5080902;28;20486;-56
2023/07/03 03:51:47;;;;;;;9.90;5.07;;;;;;;;;;5084544;28;20473;-59
2023/07/03 03:54:14;;;;;;;12.23;4.33;;;16.80;99.90;;;;;;5088021;28;20978;-60
2023/07/03 03:56:43;;;;;;;8.00;4.83;;;;;;;;;;5091461;28;20466;-55
2023/07/03 03:59:10;;;;;;;11.67;4.80;;;16.80;99.90;;;;;;5091903;28;20894;-56
2023/07/03 04:01:36;;;;;;;13.47;5.30;;;16.60;99.90;;;;;;5091471;28;20526;-59
2023/07/03 04:04:03;;;;;;;11.57;5.20;;;16.60;99.90;;;;;;5091495;28;20522;-60
2023/07/03 04:06:31;;;;;;;8.60;4.67;;;16.80;99.90;;;;;;5091703;28;20481;-58
2023/07/03 04:08:59;;;;;;;10.23;5.13;;;16.90;99.90;;;;;;5091704;28;20950;-57
2023/07/03 04:11:26;;;;;;;12.20;4.93;;;16.80;99.90;;;;;;5091182;28;20458;-56
2023/07/03 04:13:55;;;;;;;10.03;5.10;;;;;;;;;;5090920;28;20466;-57
2023/07/03 04:16:22;;;;;;;14.40;4.57;;;17.00;99.90;;;;;;5091114;28;20456;-55
2023/07/03 04:18:48;;;;;;;13.47;4.83;;;17.00;99.90;;;;;;5077161;28;20460;-59
2023/07/03 04:21:16;;;;;;;9.27;4.97;;;;;;;;;;5076799;28;20921;-54
2023/07/03 04:23:43;;;;;;;6.90;4.17;;;17.30;99.90;;;;;;5076876;28;20442;-56
2023/07/03 04:26:10;;;;;;;9.30;5.10;;;17.80;99.90;;;;;;5078854;28;20553;-58
2023/07/03 04:28:37;;;;;;;9.50;5.17;;;;;;;;;;5083077;28;20447;-55
2023/07/03 04:31:06;;;;;;;10.17;5.03;;;17.30;99.90;;;;;;5082745;28;20869;-55
2023/07/03 04:33:33;;;;;;;12.93;4.90;;;;;;;;;;5083089;28;20470;-57
2023/07/03 04:36:00;;;;;;;8.17;4.00;;;;;;;;;;5083272;28;20531;-56
2023/07/03 04:38:27;;;;;;;10.27;5.40;;;16.80;99.90;;;;;;5090494;28;20470;-59
2023/07/03 04:40:54;;;;;;;9.97;4.93;;;17.20;99.90;;;;;;5091506;28;20453;-58
2023/07/03 04:43:22;;;;;;;8.27;4.47;;;17.40;99.90;;;;;;5091148;28;20478;-58
2023/07/03 04:45:51;;;;;;;8.03;4.13;;;17.40;99.90;;;;;;5090293;28;20655;-58
2023/07/03 04:48:20;;;;;;;9.33;4.90;;;17.60;99.90;;;;;;5077355;28;20449;-60
2023/07/03 04:50:49;;;;;;;12.47;4.60;;;17.40;99.90;;;;;;5075985;28;20498;-58
2023/07/03 04:53:16;;;;;;;14.63;4.77;;;17.30;99.90;;;;;;5080422;28;20470;-59
2023/07/03 04:55:43;;;;;;;13.37;5.03;;;;;;;;;;5077357;28;20999;-57
2023/07/03 04:58:11;;;;;;;8.67;3.97;;;17.70;99.90;;;;;;5079816;28;20946;-53
2023/07/03 05:00:39;;;;;;;8.90;5.00;;;17.70;99.90;;;;;;5076177;28;20470;-58
2023/07/03 05:03:07;;;;;;;11.23;4.83;;;;;;;;;;5079213;28;20812;-58
2023/07/03 05:05:36;;;;;;;8.87;5.00;;;17.30;99.90;;;;;;5082247;28;20457;-58
2023/07/03 05:08:03;;;;;;;7.90;4.43;;;18.00;99.90;;;;;;5081702;28;20490;-59
2023/07/03 05:10:30;;;;;;;10.90;5.10;;;18.00;99.90;;;;;;5081904;28;20514;-57
2023/07/03 05:12:57;;;;;;;7.03;4.33;;;17.90;99.90;;;;;;5086542;28;20967;-57
2023/07/03 05:15:25;;;;;;;10.30;5.73;;;;;;;;;;5088960;28;20499;-57
2023/07/03 05:17:54;;;;;;;9.07;4.53;;;17.90;99.90;;;;;;5075496;28;20452;-55
2023/07/03 05:20:22;;;;;;;9.07;5.23;;;18.30;99.90;;;;;;5075979;28;20433;-59
2023/07/03 05:22:51;;;;;;;9.93;5.80;;;16.30;99.90;;;;;;5077435;28;20453;-59
2023/07/03 05:25:19;;;;;;;14.47;4.97;;;18.10;99.90;;;;;;5076000;28;20553;-58
2023/07/03 05:27:54;;;;;;;12.17;5.07;;;18.20;99.90;;;;;;5077598;28;20469;-57
2023/07/03 05:30:21;;;;;;;9.77;6.07;;;18.30;99.90;;;;;;5080210;28;20835;-59
2023/07/03 05:32:48;;;;;;;13.67;5.10;;;;;;;;;;5080570;28;20529;-60
2023/07/03 05:35:15;;;;;;;10.90;5.03;;;18.00;99.90;;;;;;5080455;28;20542;-57
2023/07/03 05:37:44;;;;;;;13.10;5.13;;;18.40;99.90;;;;;;5080632;28;20431;-59
2023/07/03 05:40:14;;;;;;;11.60;6.50;;;18.60;99.90;;;;;;5080527;28;20898;-58
2023/07/03 05:42:41;;;;;;;8.80;5.70;;;18.50;99.90;;;;;;5079663;28;20441;-59
2023/07/03 05:45:10;;;;;;;9.83;5.93;;;;;;;;;;5085670;28;20469;-59
2023/07/03 05:47:37;;;;;;;9.20;5.03;;;19.20;99.90;;;;;;5087443;28;20480;-59
2023/07/03 05:50:05;;;;;;;13.00;4.77;;;18.70;99.90;;;;;;5087796;28;20489;-59
2023/07/03 05:52:33;;;;;;;10.30;4.77;;;19.10;99.90;;;;;;5088129;28;20528;-58
2023/07/03 05:55:00;;;;;;;8.10;4.13;;;;;;;;;;5087136;28;20442;-58
2023/07/03 05:57:31;;;;;;;17.63;6.37;;;18.70;99.90;;;;;;5087336;28;20457;-59
2023/07/03 05:59:59;;;;;;;11.13;5.60;;;;;;;;;;5087876;28;20450;-57
2023/07/03 06:02:26;;;;;;;12.23;4.60;;;18.80;99.90;;;;;;5077658;28;20553;-58
2023/07/03 06:04:53;;;;;;;15.97;4.70;;;;;;;;;;5089106;28;20541;-57
2023/07/03 06:07:20;;;;;;;8.07;5.00;;;19.00;99.90;;;;;;5085501;28;20534;-58
2023/07/03 06:09:47;;;;;;;8.67;5.40;;;19.50;99.90;;;;;;5076099;28;20520;-61
2023/07/03 06:12:17;;;;;;;10.63;5.80;;;;;;;;;;5074811;28;20580;-61
2023/07/03 06:14:45;;;;;;;9.30;5.43;;;19.00;99.90;;;;;;5075028;28;20474;-58
2023/07/03 06:17:12;;;;;;;8.43;4.23;;;19.10;99.90;;;;;;5074535;28;20932;-58
2023/07/03 06:19:39;;;;;;;9.83;5.20;;;19.20;99.90;;;;;;5074902;28;20973;-58
2023/07/03 06:22:06;;;;;;;8.50;4.97;;;19.10;99.90;;;;;;5074767;28;20846;-57
2023/07/03 06:24:34;;;;;;;7.53;4.27;;;;;;;;;;5078419;28;20473;-56
2023/07/03 06:27:02;;;;;;;12.37;6.07;;;19.00;99.90;;;;;;5081096;28;20498;-59
2023/07/03 06:29:31;;;;;;;16.67;5.17;;;19.30;99.90;;;;;;5089124;28;20450;-59
2023/07/03 06:32:00;;;;;;;15.47;5.10;;;19.30;99.90;;;;;;5094145;28;20452;-55
2023/07/03 06:34:27;;;;;;;6.20;4.23;;;;;;;;;;5080791;28;20486;-56
2023/07/03 06:36:54;;;;;;;9.73;4.60;;;;;;;;;;5076878;28;20470;-60
2023/07/03 06:39:21;;;;;;;9.67;4.40;;;;;;;;;;5074813;28;20537;-56
2023/07/03 06:41:48;;;;;;;9.80;4.47;;;19.20;99.90;;;;;;5074635;28;20478;-58
2023/07/03 06:44:16;;;;;;;7.40;4.23;;;19.40;99.90;;;;;;5074364;28;20541;-59
2023/07/03 06:46:44;;;;;;;11.73;5.30;;;19.50;99.90;;;;;;5074279;28;20534;-59
2023/07/03 06:49:13;;;;;;;7.57;4.53;;;19.50;99.90;;;;;;5077787;28;20474;-58
2023/07/03 06:51:40;;;;;;;8.93;4.80;;;19.30;99.90;;;;;;5079905;28;20506;-60
2023/07/03 06:54:07;;;;;;;8.80;3.87;;;19.70;99.90;;;;;;5076981;28;20467;-61
2023/07/03 06:56:34;;;;;;;7.20;3.80;;;;;;;;;;5078470;28;20490;-58
2023/07/03 06:59:01;;;;;;;5.67;3.80;;;19.40;99.90;;;;;;5074631;28;20529;-59
2023/07/03 07:01:29;;;;;;;9.07;4.13;;;;;;;;;;5076656;28;20526;-56
2023/07/03 07:03:56;;;;;;;8.27;5.00;;;;;;;;;;5084817;28;20452;-58
2023/07/03 07:06:27;;;;;;;13.63;4.13;;;19.70;99.90;;;;;;5079042;28;20548;-59
2023/07/03 07:08:54;;;;;;;9.70;4.20;;;19.70;99.90;;;;;;5079965;28;20438;-58
2023/07/03 07:11:23;;;;;;;9.20;5.00;;;19.70;99.90;;;;;;5080578;28;20576;-57
2023/07/03 07:13:52;;;;;;;10.60;4.90;;;19.70;99.90;;;;;;5081201;28;20446;-57
2023/07/03 07:16:22;;;;;;;10.23;5.00;;;19.80;99.90;;;;;;5081455;28;20452;-56
2023/07/03 07:18:52;;;;;;;8.87;4.00;;;20.40;99.90;;;;;;5085232;28;20443;-58
2023/07/03 07:21:19;;;;;;;8.53;4.23;;;20.30;99.90;;;;;;5081314;28;20537;-57
2023/07/03 07:23:50;;;;;;;16.73;3.87;;;19.70;99.90;;;;;;5080593;28;20552;-55
2023/07/03 07:26:17;;;;;;;12.23;4.70;;;19.90;99.90;;;;;;5077966;28;20426;-52
2023/07/03 07:28:44;;;;;;;5.20;3.80;;;20.20;99.90;;;;;;5078093;28;20557;-57
2023/07/03 07:31:12;;;;;;;5.03;3.30;;;;;;;;;;5077962;28;20560;-55
2023/07/03 07:33:39;;;;;;;12.37;5.20;;;19.60;99.90;;;;;;5079618;28;20909;-55
2023/07/03 07:36:12;;;;;;;14.87;3.90;;;19.60;99.90;;;;;;5079172;28;20437;-51
2023/07/03 07:38:41;;;;;;;15.47;5.93;;;19.80;99.90;;;;;;5093805;28;20435;-53
2023/07/03 07:41:09;;;;;;;6.17;4.00;;;19.80;99.90;;;;;;5099251;28;20445;-50
2023/07/03 07:43:36;;;;;;;7.73;3.73;;;20.20;99.90;;;;;;5082699;28;20768;-59
2023/07/03 07:46:03;;;;;;;7.50;3.90;;;;;;;;;;5079692;28;20556;-59
2023/07/03 07:48:31;;;;;;;7.77;3.60;;;21.30;99.90;;;;;;5079953;28;20454;-58
2023/07/03 07:50:58;;;;;;;7.43;3.90;;;;;;;;;;5084125;28;20478;-56
2023/07/03 07:53:26;;;;;;;13.30;5.00;;;;;;;;;;5083174;28;20509;-58
2023/07/03 07:55:53;;;;;;;14.53;4.53;;;;;;;;;;5086458;28;20468;-55
2023/07/03 07:58:21;;;;;;;5.07;3.70;;;22.00;99.90;;;;;;5087489;28;20498;-57
2023/07/03 08:00:51;;;;;;;8.13;4.00;;;22.00;99.90;;;;;;5082577;28;20454;-59
2023/07/03 08:03:18;;;;;;;6.97;3.60;;;21.90;99.90;;;;;;5078048;28;20465;-58
2023/07/03 08:05:46;;;;;;;8.90;3.83;;;;;;;;;;5080777;28;20446;-60
2023/07/03 08:08:12;;;;;;;14.13;4.70;;;21.30;99.90;;;;;;5080038;28;20505;-58
2023/07/03 08:10:40;;;;;;;9.20;4.53;;;21.40;99.90;;;;;;5077159;28;20466;-58
2023/07/03 08:13:08;;;;;;;12.27;3.70;;;;;;;;;;5078148;28;20438;-59
2023/07/03 08:15:36;;;;;;;11.70;4.07;;;21.20;99.90;;;;;;5079717;28;20511;-59
2023/07/03 08:18:04;;;;;;;7.97;3.80;;;;;;;;;;5090446;28;20442;-55
2023/07/03 08:20:31;;;;;;;5.90;3.63;;;;;;;;;;5096710;28;20458;-59
2023/07/03 08:23:07;;;;;;;13.70;4.57;;;21.30;99.90;;;;;;5096339;28;20465;-56
2023/07/03 08:25:34;;;;;;;11.00;3.67;;;20.90;99.90;;;;;;5087590;28;20494;-55
2023/07/03 08:28:03;;;;;;;8.93;3.60;;;20.70;99.90;;;;;;5087077;28;20443;-60
2023/07/03 08:30:31;;;;;;;6.13;3.70;;;;;;;;;;5080316;28;20486;-60
2023/07/03 08:32:59;;;;;;;15.40;4.40;;;;;;;;;;5077185;28;20505;-60
2023/07/03 08:35:26;;;;;;;7.63;3.70;;;;;;;;;;5077010;28;20533;-60
2023/07/03 08:37:54;;;;;;;12.27;4.80;;;23.60;99.90;;;;;;5077039;28;20481;-59
2023/07/03 08:40:22;;;;;;;8.07;3.53;;;23.30;99.90;;;;;;5076652;28;20470;-59
2023/07/03 08:42:53;;;;;;;4.37;3.43;;;23.20;99.90;;;;;;5077282;28;20482;-61
2023/07/03 08:45:22;;;;;;;13.03;7.03;;;22.90;99.90;;;;;;5076734;28;21042;-60
2023/07/03 08:47:51;;;;;;;11.10;6.33;;;22.70;99.90;;;;;;5076992;28;20446;-60
2023/07/03 08:50:22;;;;;;;9.53;3.43;;;23.00;99.90;;;;;;5076466;28;20866;-60
2023/07/03 08:52:54;;;;;;;5.83;3.17;;;23.30;99.90;;;;;;5076358;28;20478;-61
2023/07/03 08:55:24;;;;;;;6.27;3.33;;;24.30;99.90;;;;;;5077385;28;20502;-61
2023/07/03 08:57:51;;;;;;;7.53;3.77;;;25.10;99.90;;;;;;5076347;28;20446;-61
2023/07/03 09:00:19;;;;;;;12.43;7.70;;;;;;;;;;5076092;28;20450;-61
2023/07/03 09:02:53;;;;;;;5.53;4.13;;;26.20;99.90;;;;;;5077952;28;20795;-61
2023/07/03 09:05:34;;;;;;;19.63;9.13;;;27.30;99.90;;;;;;5075775;28;20937;-60
2023/07/03 09:08:05;;;;;;;10.17;3.53;;;28.20;99.90;;;;;;5075756;28;20423;-59
2023/07/03 09:10:37;;;;;;;8.50;3.70;;;28.60;71.70;;;;;;5092042;28;20454;-58
2023/07/03 09:13:09;;;;;;;7.20;4.00;;;28.60;93.40;;;;;;5096387;28;20431;-59
2023/07/03 09:15:40;;;;;;;10.30;3.57;;;29.40;96.60;;;;;;5079264;28;20553;-61
2023/07/03 09:18:13;;;;;;;6.23;3.20;;;29.40;90.90;;;;;;5077912;28;20422;-61
2023/07/03 09:20:43;;;;;;;7.60;3.13;;;29.40;90.90;;;;;;5081859;28;20434;-60
2023/07/03 09:23:16;;;;;;;6.23;3.43;;;29.70;88.90;;;;;;5077987;28;20431;-60
2023/07/03 09:25:48;;;;;;;4.13;3.00;;;29.40;55.30;;;;;;5076789;28;20759;-60
2023/07/03 09:28:15;;;;;;;4.47;3.47;;;;;;;;;;5082794;28;20846;-59
2023/07/03 09:30:42;;;;;;;7.70;3.17;;;28.40;87.40;;;;;;5083827;28;20474;-62
2023/07/03 09:33:09;;;;;;;5.10;2.90;;;27.70;92.60;;;;;;5080692;28;20966;-59
2023/07/03 09:35:40;;;;;;;7.63;3.43;;;27.50;89.00;;;;;;5082268;28;20457;-60
2023/07/03 09:38:12;;;;;;;8.20;3.60;;;26.30;90.40;;;;;;5081099;28;20454;-60
2023/07/03 09:40:43;;;;;;;3.83;2.93;;;25.40;95.70;;;;;;5077957;28;20569;-58
2023/07/03 09:43:14;;;;;;;5.03;3.07;;;;;;;;;;5083833;28;20423;-60
2023/07/03 09:45:41;;;;;;;6.77;2.90;;;24.60;97.30;;;;;;5076560;28;20467;-61
2023/07/03 09:48:16;;;;;;;4.57;2.70;;;24.30;65.20;;;;;;5079266;28;20467;-59
2023/07/03 09:50:44;;;;;;;6.17;2.67;;;;;;;;;;5076410;28;20426;-58
2023/07/03 09:53:17;;;;;;;10.60;3.87;;;24.40;66.40;;;;;;5086522;28;20794;-59
2023/07/03 09:55:45;;;;;;;9.23;2.90;;;24.90;93.80;;;;;;5084284;28;20451;-58
2023/07/03 09:58:14;;;;;;;5.43;2.53;;;24.30;62.90;;;;;;5082995;28;20466;-60
2023/07/03 10:00:47;;;;;;;20.97;11.70;;;24.90;97.00;;;;;;5077623;28;20446;-58
2023/07/03 10:03:23;;;;;;;12.80;8.93;;;24.90;62.60;;;;;;5079952;28;20525;-58
2023/07/03 10:05:50;;;;;;;11.10;7.60;;;24.70;92.70;;;;;;5078335;28;20430;-59
2023/07/03 10:08:25;;;;;;;4.30;3.23;;;24.50;63.60;;;;;;5078825;28;20521;-60
2023/07/03 10:10:55;;;;;;;6.32;2.60;;;24.40;93.60;;;;;;5078785;28;20478;-56
2023/07/03 10:13:27;;;;;;;4.73;2.83;;;24.00;93.40;;;;;;5082839;28;20232;-60
2023/07/03 10:15:55;;;;;;;6.93;2.87;;;23.70;93.60;;;;;;5081129;28;20730;-58
2023/07/03 10:18:27;;;;;;;2.83;2.60;;;23.50;96.30;;;;;;5078412;28;20544;-53
2023/07/03 10:20:55;;;;;;;5.50;2.90;;;23.50;65.10;;;;;;5084305;28;20436;-58
2023/07/03 10:23:27;;;;;;;7.07;3.10;;;23.30;98.60;;;;;;5084796;28;20482;-58
2023/07/03 10:25:58;;;;;;;4.90;2.43;;;23.10;95.10;;;;;;5085007;28;20427;-56
2023/07/03 10:28:31;;;;;;;5.40;2.93;;;22.90;70.70;;;;;;5083838;28;20422;-60
2023/07/03 10:31:03;;;;;;;8.70;3.83;;;23.00;96.30;;;;;;5080966;28;20466;-60
2023/07/03 10:33:36;;;;;;;5.80;2.77;;;23.20;72.50;;;;;;5081660;28;20509;-59
2023/07/03 10:36:07;;;;;;;8.57;4.07;;;22.80;99.70;;;;;;5084823;28;20470;-59
2023/07/03 10:38:42;;;;;;;13.47;2.90;;;23.10;73.60;;;;;;5085815;28;20502;-58
2023/07/03 10:41:15;;;;;;;5.50;2.60;;;22.90;99.90;;;;;;5080964;28;20509;-56
2023/07/03 10:43:49;;;;;;;5.83;2.80;;;23.00;97.30;;;;;;5082274;28;20438;-59
2023/07/03 10:46:24;;;;;;;5.33;2.60;;;23.60;98.30;;;;;;5082048;28;20498;-61
2023/07/03 10:48:54;;;;;;;8.13;5.03;;;23.80;95.80;;;;;;5084163;28;20466;-58
2023/07/03 10:51:23;;;;;;;8.10;3.10;;;;;;;;;;5080599;28;20492;-59
2023/07/03 10:53:56;;;;;;;4.87;2.40;;;23.60;99.10;;;;;;5080842;28;20447;-59
2023/07/03 10:56:27;;;;;;;8.70;4.00;;;23.70;96.50;;;;;;5074506;28;20545;-59
2023/07/03 10:59:03;;;;;;;7.70;2.70;;;23.40;99.90;;;;;;5079164;28;20938;-59
2023/07/03 11:01:39;;;;;;;6.80;3.27;;;22.90;70.50;;;;;;5080952;28;20423;-60
2023/07/03 11:04:17;;;;;;;6.27;2.50;;;22.80;71.10;;;;;;5081358;28;20491;-60
2023/07/03 11:06:49;;;;;;;5.53;2.63;;;22.80;99.90;;;;;;5081468;28;20513;-60
2023/07/03 11:09:23;;;;;;;4.30;2.90;;;22.70;72.70;;;;;;5080753;28;20501;-58
2023/07/03 11:12:00;;;;;;;5.97;3.03;;;22.60;96.90;;;;;;5090338;28;20568;-57
2023/07/03 11:14:35;;;;;;;8.20;3.83;;;22.50;99.80;;;;;;5088929;28;20911;-57
2023/07/03 11:17:11;;;;;;;4.30;2.80;;;22.20;97.40;;;;;;5089369;28;20466;-58
2023/07/03 11:19:49;;;;;;;7.03;3.07;;;21.80;99.90;;;;;;5082111;28;20522;-60
2023/07/03 11:22:18;;;;;;;12.63;3.13;;;21.30;74.60;;;;;;5081487;28;20422;-59
2023/07/03 11:25:01;;;;;;;12.37;3.10;;;21.70;69.80;;;;;;5081708;28;20472;-57
2023/07/03 11:27:36;;;;;;;3.80;2.70;;;21.90;98.40;;;;;;5081891;28;20438;-60
2023/07/03 11:30:04;;;;;;;6.40;3.50;;;21.50;99.90;;;;;;5080996;28;20461;-58
2023/07/03 11:32:35;;;;;;;5.33;2.60;;;22.10;98.60;;;;;;5081482;28;20465;-59
2023/07/03 11:35:03;;;;;;;6.80;3.20;;;22.40;78.40;;;;;;5082352;28;20426;-60
2023/07/03 11:37:35;;;;;;;5.97;3.03;;;22.20;99.90;;;;;;5085434;28;20486;-60
2023/07/03 11:40:29;;;;;;;6.70;3.87;;;22.10;78.10;;;;;;5081808;28;20443;-59
2023/07/03 11:43:32;;;;;;;5.20;2.77;;;22.20;99.60;;;;;;5083804;28;20430;-60
2023/07/03 11:46:08;;;;;;;5.60;2.60;;;21.50;99.60;;;;;;5081763;28;20450;-59
2023/07/03 11:48:45;;;;;;;5.27;3.10;;;21.70;99.90;;;;;;5082142;28;20517;-61
2023/07/03 11:51:14;;;;;;;4.93;2.50;;;21.50;79.80;;;;;;5077869;28;20552;-61
2023/07/03 11:53:45;;;;;;;8.27;3.00;;;21.20;79.40;;;;;;5078791;28;20442;-60
2023/07/03 11:56:49;;;;;;;6.60;3.03;;;21.50;80.90;;;;;;5081522;28;20433;-61
2023/07/03 11:59:25;;;;;;;4.60;2.60;;;21.70;80.70;;;;;;5091030;28;20469;-58
2023/07/03 12:02:45;;;;;;;7.27;2.47;;;21.70;73.60;;;;;;5086122;28;20476;-59
2023/07/03 12:05:56;;;;;;;3.43;1.90;;;22.00;79.70;;;;;;5085974;28;20466;-59
2023/07/03 12:08:47;;;;;;;8.20;3.00;;;22.30;99.90;;;;;;5077648;28;20529;-60
2023/07/03 12:11:16;;;;;;;9.23;2.30;;;22.60;99.70;;;;;;5064289;28;20458;-60
2023/07/03 12:14:01;;;;;;;5.23;2.80;;;22.70;93.00;;;;;;5077842;28;20419;-60
2023/07/03 12:16:31;;;;;;;12.53;5.20;;;22.70;79.80;;;;;;5080738;28;20465;-60
2023/07/03 12:19:01;;;;;;;6.63;2.47;;;22.70;79.90;;;;;;5085095;28;20522;-59
2023/07/03 12:21:35;;;;;;;2.53;2.10;;;22.30;79.40;;;;;;5091327;28;20863;-60
2023/07/03 12:24:02;;;;;;;4.00;2.07;;;;;;;;;;5076921;28;20423;-59
2023/07/03 12:26:30;;;;;;;5.20;2.60;;;22.30;99.90;;;;;;5077025;28;20541;-61
2023/07/03 12:29:05;;;;;;;4.97;2.67;;;22.50;80.50;;;;;;5079390;28;20528;-60
2023/07/03 12:31:33;;;;;;;8.60;2.40;;;;;;;;;;5080428;28;20488;-61
2023/07/03 12:34:01;;;;;;;6.27;2.97;;;22.00;99.90;;;;;;5081407;28;20446;-58
2023/07/03 12:36:30;;;;;;;10.20;3.53;;;22.10;99.90;;;;;;5076860;28;20537;-55
2023/07/03 12:38:58;;;;;;;11.57;2.83;;;22.40;99.90;;;;;;5078264;28;20442;-59
2023/07/03 12:41:33;;;;;;;5.80;1.93;;;22.10;99.90;;;;;;5080810;28;20913;-57
2023/07/03 12:44:02;;;;;;;10.70;2.60;;;22.00;80.90;;;;;;5079993;28;20437;-58
2023/07/03 12:46:31;;;;;;;5.77;2.47;;;22.00;99.90;;;;;;5081578;28;20466;-57
2023/07/03 12:49:03;;;;;;;9.97;2.90;;;22.70;99.90;;;;;;5083972;28;20446;-58
2023/07/03 12:51:30;;;;;;;8.00;2.10;;;;;;;;;;5084311;28;20505;-60
2023/07/03 12:53:57;;;;;;;4.90;2.20;;;22.40;99.90;;;;;;5086633;28;20525;-56
2023/07/03 12:56:24;;;;;;;2.50;2.20;;;22.30;99.90;;;;;;5083337;28;20438;-57
2023/07/03 12:58:56;;;;;;;9.23;2.57;;;22.60;82.10;;;;;;5083179;28;20434;-56
2023/07/03 13:01:24;;;;;;;13.40;3.93;;;22.60;99.90;;;;;;5084803;28;20462;-55
2023/07/03 13:03:52;;;;;;;12.30;2.90;;;22.60;79.70;;;;;;5083796;28;20841;-57
2023/07/03 13:06:22;;;;;;;8.70;2.67;;;22.40;99.90;;;;;;5083033;28;20476;-56
2023/07/03 13:08:49;;;;;;;6.90;2.60;;;22.40;79.00;;;;;;5082861;28;20431;-61
2023/07/03 13:11:31;;;;;;;7.27;2.80;;;22.30;99.90;;;;;;5083151;28;20450;-58
2023/07/03 13:14:10;;;;;;;10.77;3.60;;;22.40;82.10;;;;;;5076086;28;20965;-57
2023/07/03 13:16:37;;;;;;;8.03;2.27;;;22.60;99.90;;;;;;5082543;28;20426;-60
2023/07/03 13:19:04;;;;;;;6.50;3.30;;;22.50;99.90;;;;;;5082976;28;20549;-57
2023/07/03 13:21:31;;;;;;;9.77;2.73;;;;;;;;;;5082818;28;20542;-58